sensor_id;sensor_type;location;lat;lon;timestamp;pressure;altitude;pressure_sealevel;temperature;humidity
13800;BME280;6971;50.028;9.258;2023-01-30T00:01:00;99986.78;;;-2.75;100.00
13800;BME280;6971;50.028;9.258;2023-01-30T00:06:02;99974.75;;;-2.73;100.00
13800;BME280;6971;50.028;9.258;2023-01-30T00:11:08;99955.03;;;-2.68;100.00
13800;BME280;6971;50.028;9.258;2023-01-30T00:16:10;99952.47;;;-2.66;100.00
13800;BME280;6971;50.028;9.258;2023-01-30T00:21:13;99954.19;;;-2.65;100.00
13800;BME280;6971;50.028;9.258;2023-01-30T00:26:14;99935.38;;;-2.53;100.00
13800;BME280;6971;50.028;9.258;2023-01-30T00:31:17;99949.16;;;-2.53;100.00
13800;BME280;6971;50.028;9.258;2023-01-30T00:36:17;99935.41;;;-2.45;100.00
13800;BME280;6971;50.028;9.258;2023-01-30T00:41:18;99928.56;;;-2.42;100.00
13800;BME280;6971;50.028;9.258;2023-01-30T00:46:30;99907.13;;;-2.31;100.00
13800;BME280;6971;50.028;9.258;2023-01-30T00:51:50;99863.22;;;-2.27;100.00
13800;BME280;6971;50.028;9.258;2023-01-30T00:56:51;99864.97;;;-2.23;100.00
13800;BME280;6971;50.028;9.258;2023-01-30T01:01:52;99866.78;;;-2.11;100.00
13800;BME280;6971;50.028;9.258;2023-01-30T01:06:54;99859.03;;;-2.07;100.00
13800;BME280;6971;50.028;9.258;2023-01-30T01:11:54;99865.13;;;-1.94;100.00
13800;BME280;6971;50.028;9.258;2023-01-30T01:16:55;99842.72;;;-1.95;100.00
13800;BME280;6971;50.028;9.258;2023-01-30T01:21:56;99849.66;;;-1.80;100.00
13800;BME280;6971;50.028;9.258;2023-01-30T01:26:58;99826.44;;;-1.76;100.00
13800;BME280;6971;50.028;9.258;2023-01-30T01:31:59;99848.81;;;-1.75;100.00
13800;BME280;6971;50.028;9.258;2023-01-30T01:37:00;99851.44;;;-1.67;100.00
13800;BME280;6971;50.028;9.258;2023-01-30T01:42:01;99829.91;;;-1.63;100.00
13800;BME280;6971;50.028;9.258;2023-01-30T01:47:02;99810.97;;;-1.57;100.00
13800;BME280;6971;50.028;9.258;2023-01-30T01:52:07;99814.41;;;-1.50;100.00
13800;BME280;6971;50.028;9.258;2023-01-30T01:57:15;99849.75;;;-1.48;100.00
13800;BME280;6971;50.028;9.258;2023-01-30T02:02:18;99841.16;;;-1.42;100.00
13800;BME280;6971;50.028;9.258;2023-01-30T02:07:20;99828.22;;;-1.40;100.00
13800;BME280;6971;50.028;9.258;2023-01-30T02:12:21;99816.16;;;-1.38;100.00
13800;BME280;6971;50.028;9.258;2023-01-30T02:17:23;99780.84;;;-1.33;100.00
13800;BME280;6971;50.028;9.258;2023-01-30T02:28:29;99776.53;;;-1.37;100.00
13800;BME280;6971;50.028;9.258;2023-01-30T02:39:43;99763.59;;;-1.28;100.00
13800;BME280;6971;50.028;9.258;2023-01-30T02:44:56;99765.28;;;-1.32;100.00
13800;BME280;6971;50.028;9.258;2023-01-30T02:50:28;99767.88;;;-1.28;100.00
13800;BME280;6971;50.028;9.258;2023-01-30T02:55:30;99754.97;;;-1.24;100.00
13800;BME280;6971;50.028;9.258;2023-01-30T03:11:23;99754.09;;;-1.10;100.00
13800;BME280;6971;50.028;9.258;2023-01-30T03:16:37;99751.47;;;-1.07;100.00
13800;BME280;6971;50.028;9.258;2023-01-30T03:21:42;99749.78;;;-1.05;100.00
13800;BME280;6971;50.028;9.258;2023-01-30T03:26:53;99758.38;;;-1.00;100.00
13800;BME280;6971;50.028;9.258;2023-01-30T03:31:56;99773.91;;;-0.97;100.00
13800;BME280;6971;50.028;9.258;2023-01-30T03:36:57;99766.13;;;-0.94;100.00
13800;BME280;6971;50.028;9.258;2023-01-30T03:41:58;99760.13;;;-0.96;100.00
13800;BME280;6971;50.028;9.258;2023-01-30T03:46:59;99760.13;;;-0.94;100.00
13800;BME280;6971;50.028;9.258;2023-01-30T03:52:00;99754.94;;;-0.96;100.00
13800;BME280;6971;50.028;9.258;2023-01-30T03:57:01;99735.94;;;-0.98;100.00
13800;BME280;6971;50.028;9.258;2023-01-30T04:02:02;99724.72;;;-0.94;100.00
13800;BME280;6971;50.028;9.258;2023-01-30T04:07:02;99714.38;;;-0.90;100.00
13800;BME280;6971;50.028;9.258;2023-01-30T04:12:03;99697.13;;;-0.92;100.00
13800;BME280;6971;50.028;9.258;2023-01-30T04:17:04;99691.13;;;-0.98;100.00
13800;BME280;6971;50.028;9.258;2023-01-30T04:22:05;99670.41;;;-0.95;100.00
13800;BME280;6971;50.028;9.258;2023-01-30T04:27:06;99668.66;;;-0.93;100.00
13800;BME280;6971;50.028;9.258;2023-01-30T04:32:07;99655.72;;;-0.93;100.00
13800;BME280;6971;50.028;9.258;2023-01-30T04:37:08;99654.03;;;-0.94;100.00
13800;BME280;6971;50.028;9.258;2023-01-30T04:42:08;99660.03;;;-0.94;100.00
13800;BME280;6971;50.028;9.258;2023-01-30T04:47:09;99668.66;;;-0.92;100.00
13800;BME280;6971;50.028;9.258;2023-01-30T04:52:10;99660.00;;;-0.83;100.00
13800;BME280;6971;50.028;9.258;2023-01-30T04:57:10;99656.56;;;-0.85;100.00
13800;BME280;6971;50.028;9.258;2023-01-30T05:02:11;99641.00;;;-0.80;100.00
13800;BME280;6971;50.028;9.258;2023-01-30T05:07:12;99612.56;;;-0.83;100.00
13800;BME280;6971;50.028;9.258;2023-01-30T05:12:25;99617.72;;;-0.77;100.00
13800;BME280;6971;50.028;9.258;2023-01-30T05:17:26;99617.75;;;-0.88;100.00
13800;BME280;6971;50.028;9.258;2023-01-30T05:22:27;99600.47;;;-0.81;100.00
13800;BME280;6971;50.028;9.258;2023-01-30T05:27:28;99598.75;;;-0.85;100.00
13800;BME280;6971;50.028;9.258;2023-01-30T05:32:28;99602.22;;;-0.85;100.00
13800;BME280;6971;50.028;9.258;2023-01-30T05:37:31;99602.19;;;-0.80;100.00
13800;BME280;6971;50.028;9.258;2023-01-30T05:42:32;99595.28;;;-0.75;100.00
13800;BME280;6971;50.028;9.258;2023-01-30T05:47:33;99584.09;;;-0.86;100.00
13800;BME280;6971;50.028;9.258;2023-01-30T05:52:34;99581.50;;;-0.82;100.00
13800;BME280;6971;50.028;9.258;2023-01-30T05:57:35;99584.88;;;-0.72;100.00
13800;BME280;6971;50.028;9.258;2023-01-30T06:02:36;99569.34;;;-0.69;100.00
13800;BME280;6971;50.028;9.258;2023-01-30T06:07:36;99565.94;;;-0.71;100.00
13800;BME280;6971;50.028;9.258;2023-01-30T06:12:37;99565.88;;;-0.64;100.00
13800;BME280;6971;50.028;9.258;2023-01-30T06:17:41;99571.94;;;-0.69;100.00
13800;BME280;6971;50.028;9.258;2023-01-30T06:22:44;99566.75;;;-0.66;100.00
13800;BME280;6971;50.028;9.258;2023-01-30T06:27:45;99550.28;;;-0.58;100.00
13800;BME280;6971;50.028;9.258;2023-01-30T06:32:49;99541.69;;;-0.62;100.00
13800;BME280;6971;50.028;9.258;2023-01-30T06:37:50;99559.81;;;-0.60;100.00
13800;BME280;6971;50.028;9.258;2023-01-30T06:42:50;99553.69;;;-0.50;100.00
13800;BME280;6971;50.028;9.258;2023-01-30T06:47:52;99549.41;;;-0.53;100.00
13800;BME280;6971;50.028;9.258;2023-01-30T06:52:55;99556.28;;;-0.50;100.00
13800;BME280;6971;50.028;9.258;2023-01-30T06:58:07;99570.09;;;-0.46;100.00
13800;BME280;6971;50.028;9.258;2023-01-30T07:03:13;99572.66;;;-0.45;100.00
13800;BME280;6971;50.028;9.258;2023-01-30T07:08:15;99568.31;;;-0.40;100.00
13800;BME280;6971;50.028;9.258;2023-01-30T07:13:16;99587.28;;;-0.33;100.00
13800;BME280;6971;50.028;9.258;2023-01-30T07:18:19;99581.22;;;-0.32;100.00
13800;BME280;6971;50.028;9.258;2023-01-30T07:23:20;99574.25;;;-0.25;100.00
13800;BME280;6971;50.028;9.258;2023-01-30T07:28:21;99595.81;;;-0.24;100.00
13800;BME280;6971;50.028;9.258;2023-01-30T07:33:22;99599.28;;;-0.22;100.00
13800;BME280;6971;50.028;9.258;2023-01-30T07:38:23;99590.66;;;-0.24;100.00
13800;BME280;6971;50.028;9.258;2023-01-30T07:43:23;99575.09;;;-0.24;100.00
13800;BME280;6971;50.028;9.258;2023-01-30T07:48:25;99574.25;;;-0.27;100.00
13800;BME280;6971;50.028;9.258;2023-01-30T07:53:28;99589.81;;;-0.28;100.00
13800;BME280;6971;50.028;9.258;2023-01-30T07:58:31;99589.81;;;-0.25;100.00
13800;BME280;6971;50.028;9.258;2023-01-30T08:03:31;99595.00;;;-0.27;100.00
13800;BME280;6971;50.028;9.258;2023-01-30T08:08:32;99569.91;;;-0.23;100.00
13800;BME280;6971;50.028;9.258;2023-01-30T08:13:33;99563.03;;;-0.25;100.00
13800;BME280;6971;50.028;9.258;2023-01-30T08:18:34;99553.47;;;-0.20;100.00
13800;BME280;6971;50.028;9.258;2023-01-30T08:23:35;99566.50;;;-0.30;100.00
13800;BME280;6971;50.028;9.258;2023-01-30T08:28:36;99569.91;;;-0.23;100.00
13800;BME280;6971;50.028;9.258;2023-01-30T08:33:38;99550.09;;;-0.27;100.00
13800;BME280;6971;50.028;9.258;2023-01-30T08:38:39;99563.09;;;-0.36;100.00
13800;BME280;6971;50.028;9.258;2023-01-30T08:43:39;99575.16;;;-0.31;100.00
13800;BME280;6971;50.028;9.258;2023-01-30T08:48:40;99582.91;;;-0.29;100.00
13800;BME280;6971;50.028;9.258;2023-01-30T08:53:44;99569.09;;;-0.30;100.00
13800;BME280;6971;50.028;9.258;2023-01-30T08:58:45;99544.94;;;-0.29;100.00
13800;BME280;6971;50.028;9.258;2023-01-30T09:03:46;99543.19;;;-0.31;100.00
13800;BME280;6971;50.028;9.258;2023-01-30T09:08:47;99550.09;;;-0.27;100.00
13800;BME280;6971;50.028;9.258;2023-01-30T09:13:48;99538.84;;;-0.24;100.00
13800;BME280;6971;50.028;9.258;2023-01-30T09:18:49;99529.31;;;-0.21;100.00
13800;BME280;6971;50.028;9.258;2023-01-30T09:23:49;99528.47;;;-0.21;100.00
13800;BME280;6971;50.028;9.258;2023-01-30T09:28:51;99522.38;;;-0.19;100.00
13800;BME280;6971;50.028;9.258;2023-01-30T09:33:51;99512.00;;;-0.16;100.00
13800;BME280;6971;50.028;9.258;2023-01-30T09:38:52;99508.53;;;-0.16;100.00
13800;BME280;6971;50.028;9.258;2023-01-30T09:54:36;99504.84;;;0.11;100.00
13800;BME280;6971;50.028;9.258;2023-01-30T10:04:52;99476.25;;;0.18;100.00
13800;BME280;6971;50.028;9.258;2023-01-30T10:26:31;99492.56;;;0.32;100.00
13800;BME280;6971;50.028;9.258;2023-01-30T10:31:44;99476.09;;;0.35;100.00
13800;BME280;6971;50.028;9.258;2023-01-30T10:37:06;99463.91;;;0.42;100.00
13800;BME280;6971;50.028;9.258;2023-01-30T10:42:12;99486.31;;;0.49;100.00
13800;BME280;6971;50.028;9.258;2023-01-30T10:47:35;99483.72;;;0.49;100.00
13800;BME280;6971;50.028;9.258;2023-01-30T10:52:48;99473.19;;;0.61;100.00
13800;BME280;6971;50.028;9.258;2023-01-30T11:03:26;99493.78;;;0.75;100.00
13800;BME280;6971;50.028;9.258;2023-01-30T11:08:31;99499.78;;;0.77;100.00
13800;BME280;6971;50.028;9.258;2023-01-30T11:13:33;99495.31;;;0.89;100.00
13800;BME280;6971;50.028;9.258;2023-01-30T11:18:50;99513.47;;;0.92;100.00
13800;BME280;6971;50.028;9.258;2023-01-30T11:23:53;99515.06;;;0.99;100.00
13800;BME280;6971;50.028;9.258;2023-01-30T11:28:54;99517.59;;;1.07;100.00
13800;BME280;6971;50.028;9.258;2023-01-30T11:34:04;99510.56;;;1.15;100.00
13800;BME280;6971;50.028;9.258;2023-01-30T11:39:27;99518.25;;;1.22;100.00
13800;BME280;6971;50.028;9.258;2023-01-30T11:44:33;99513.81;;;1.30;100.00
13800;BME280;6971;50.028;9.258;2023-01-30T11:49:40;99506.06;;;1.27;100.00
13800;BME280;6971;50.028;9.258;2023-01-30T11:55:03;99505.09;;;1.34;100.00
13800;BME280;6971;50.028;9.258;2023-01-30T12:00:36;99494.72;;;1.34;100.00
13800;BME280;6971;50.028;9.258;2023-01-30T12:05:38;99485.91;;;1.43;100.00
13800;BME280;6971;50.028;9.258;2023-01-30T12:10:44;99473.75;;;1.47;100.00
13800;BME280;6971;50.028;9.258;2023-01-30T12:15:48;99472.84;;;1.48;100.00
13800;BME280;6971;50.028;9.258;2023-01-30T12:21:01;99482.31;;;1.52;100.00
13800;BME280;6971;50.028;9.258;2023-01-30T12:26:12;99466.59;;;1.60;100.00
13800;BME280;6971;50.028;9.258;2023-01-30T12:31:38;99481.16;;;1.68;100.00
13800;BME280;6971;50.028;9.258;2023-01-30T12:36:56;99463.88;;;1.66;100.00
13800;BME280;6971;50.028;9.258;2023-01-30T12:42:24;99457.91;;;1.62;100.00
13800;BME280;6971;50.028;9.258;2023-01-30T12:58:35;99449.06;;;1.73;100.00
13800;BME280;6971;50.028;9.258;2023-01-30T13:04:08;99445.31;;;1.89;100.00
13800;BME280;6971;50.028;9.258;2023-01-30T13:09:53;99457.19;;;2.03;100.00
13800;BME280;6971;50.028;9.258;2023-01-30T13:20:47;99480.97;;;2.30;100.00
13800;BME280;6971;50.028;9.258;2023-01-30T13:25:56;99473.03;;;2.38;100.00
13800;BME280;6971;50.028;9.258;2023-01-30T13:31:00;99487.81;;;2.34;100.00
13800;BME280;6971;50.028;9.258;2023-01-30T13:41:13;99477.38;;;2.37;100.00
13800;BME280;6971;50.028;9.258;2023-01-30T13:46:24;99493.84;;;2.38;100.00
13800;BME280;6971;50.028;9.258;2023-01-30T13:52:01;99492.19;;;2.33;100.00
13800;BME280;6971;50.028;9.258;2023-01-30T14:02:18;99466.69;;;2.04;100.00
13800;BME280;6971;50.028;9.258;2023-01-30T14:07:32;99472.88;;;2.00;100.00
13800;BME280;6971;50.028;9.258;2023-01-30T14:12:49;99472.63;;;2.12;100.00
13800;BME280;6971;50.028;9.258;2023-01-30T14:18:27;99460.06;;;2.34;100.00
13800;BME280;6971;50.028;9.258;2023-01-30T14:23:34;99475.03;;;2.67;100.00
13800;BME280;6971;50.028;9.258;2023-01-30T14:28:44;99493.06;;;2.77;100.00
13800;BME280;6971;50.028;9.258;2023-01-30T14:33:49;99478.34;;;2.76;100.00
13800;BME280;6971;50.028;9.258;2023-01-30T14:45:20;99493.91;;;2.77;100.00
13800;BME280;6971;50.028;9.258;2023-01-30T14:50:39;99507.78;;;2.78;100.00
13800;BME280;6971;50.028;9.258;2023-01-30T14:55:40;99516.44;;;2.80;100.00
13800;BME280;6971;50.028;9.258;2023-01-30T15:00:42;99530.41;;;2.76;100.00
13800;BME280;6971;50.028;9.258;2023-01-30T15:05:44;99543.16;;;2.88;100.00
13800;BME280;6971;50.028;9.258;2023-01-30T15:11:14;99563.06;;;2.91;100.00
13800;BME280;6971;50.028;9.258;2023-01-30T15:31:55;99595.91;;;2.96;100.00
13800;BME280;6971;50.028;9.258;2023-01-30T15:36:57;99607.22;;;2.95;100.00
13800;BME280;6971;50.028;9.258;2023-01-30T15:42:04;99616.84;;;2.93;100.00
13800;BME280;6971;50.028;9.258;2023-01-30T15:47:36;99617.06;;;2.81;100.00
13800;BME280;6971;50.028;9.258;2023-01-30T15:52:50;99639.78;;;2.71;100.00
13800;BME280;6971;50.028;9.258;2023-01-30T15:57:56;99651.88;;;2.75;100.00
13800;BME280;6971;50.028;9.258;2023-01-30T16:03:21;99652.81;;;2.71;100.00
13800;BME280;6971;50.028;9.258;2023-01-30T16:08:29;99652.84;;;2.69;100.00
13800;BME280;6971;50.028;9.258;2023-01-30T16:13:31;99664.31;;;2.57;100.00
13800;BME280;6971;50.028;9.258;2023-01-30T16:18:37;99668.78;;;2.49;100.00
13800;BME280;6971;50.028;9.258;2023-01-30T16:24:02;99679.94;;;2.57;100.00
13800;BME280;6971;50.028;9.258;2023-01-30T16:29:07;99678.97;;;2.65;100.00
13800;BME280;6971;50.028;9.258;2023-01-30T16:39:34;99697.16;;;2.66;100.00
13800;BME280;6971;50.028;9.258;2023-01-30T16:44:45;99702.34;;;2.66;100.00
13800;BME280;6971;50.028;9.258;2023-01-30T16:49:48;99711.13;;;2.59;100.00
13800;BME280;6971;50.028;9.258;2023-01-30T16:55:00;99723.13;;;2.68;100.00
13800;BME280;6971;50.028;9.258;2023-01-30T17:00:05;99725.13;;;2.52;100.00
13800;BME280;6971;50.028;9.258;2023-01-30T17:15:36;99745.75;;;2.64;100.00
13800;BME280;6971;50.028;9.258;2023-01-30T17:20:40;99767.66;;;2.49;100.00
13800;BME280;6971;50.028;9.258;2023-01-30T17:25:43;99761.50;;;2.55;100.00
13800;BME280;6971;50.028;9.258;2023-01-30T17:30:47;99771.88;;;2.58;100.00
13800;BME280;6971;50.028;9.258;2023-01-30T17:35:48;99779.59;;;2.64;100.00
13800;BME280;6971;50.028;9.258;2023-01-30T17:40:49;99787.44;;;2.61;100.00
13800;BME280;6971;50.028;9.258;2023-01-30T17:45:50;99794.09;;;2.79;100.00
13800;BME280;6971;50.028;9.258;2023-01-30T17:50:51;99792.25;;;2.86;100.00
13800;BME280;6971;50.028;9.258;2023-01-30T17:55:52;99813.09;;;2.84;100.00
13800;BME280;6971;50.028;9.258;2023-01-30T18:00:53;99820.94;;;2.81;100.00
13800;BME280;6971;50.028;9.258;2023-01-30T18:05:53;99826.22;;;2.78;100.00
13800;BME280;6971;50.028;9.258;2023-01-30T18:10:54;99833.16;;;2.78;100.00
13800;BME280;6971;50.028;9.258;2023-01-30T18:15:57;99836.63;;;2.80;100.00
13800;BME280;6971;50.028;9.258;2023-01-30T18:20:59;99848.81;;;2.76;100.00
13800;BME280;6971;50.028;9.258;2023-01-30T18:26:00;99857.72;;;2.59;100.00
13800;BME280;6971;50.028;9.258;2023-01-30T18:31:01;99868.94;;;2.65;100.00
13800;BME280;6971;50.028;9.258;2023-01-30T18:36:07;99877.75;;;2.54;100.00
13800;BME280;6971;50.028;9.258;2023-01-30T18:41:15;99871.59;;;2.61;100.00
13800;BME280;6971;50.028;9.258;2023-01-30T18:46:19;99897.59;;;2.63;100.00
13800;BME280;6971;50.028;9.258;2023-01-30T18:51:30;99903.63;;;2.64;100.00
13800;BME280;6971;50.028;9.258;2023-01-30T18:56:32;99910.56;;;2.66;100.00
13800;BME280;6971;50.028;9.258;2023-01-30T19:01:35;99919.19;;;2.70;100.00
13800;BME280;6971;50.028;9.258;2023-01-30T19:06:40;99924.38;;;2.71;100.00
13800;BME280;6971;50.028;9.258;2023-01-30T19:11:41;99912.22;;;2.70;100.00
13800;BME280;6971;50.028;9.258;2023-01-30T19:17:00;99924.38;;;2.73;100.00
13800;BME280;6971;50.028;9.258;2023-01-30T19:22:05;99926.06;;;2.76;100.00
13800;BME280;6971;50.028;9.258;2023-01-30T19:27:05;99938.22;;;2.73;100.00
13800;BME280;6971;50.028;9.258;2023-01-30T19:32:09;99927.78;;;2.77;100.00
13800;BME280;6971;50.028;9.258;2023-01-30T19:37:10;99939.00;;;2.80;100.00
13800;BME280;6971;50.028;9.258;2023-01-30T19:42:11;99950.31;;;2.78;100.00
13800;BME280;6971;50.028;9.258;2023-01-30T19:47:11;99958.97;;;2.80;100.00
13800;BME280;6971;50.028;9.258;2023-01-30T19:52:12;99968.50;;;2.81;100.00
13800;BME280;6971;50.028;9.258;2023-01-30T19:57:13;99977.22;;;2.78;100.00
13800;BME280;6971;50.028;9.258;2023-01-30T20:02:14;99989.34;;;2.79;100.00
13800;BME280;6971;50.028;9.258;2023-01-30T20:07:15;99991.81;;;2.89;100.00
13800;BME280;6971;50.028;9.258;2023-01-30T20:12:15;100003.19;;;2.83;100.00
13800;BME280;6971;50.028;9.258;2023-01-30T20:17:16;99998.03;;;2.78;100.00
13800;BME280;6971;50.028;9.258;2023-01-30T20:22:17;99997.16;;;2.78;100.00
13800;BME280;6971;50.028;9.258;2023-01-30T20:27:18;100004.88;;;2.85;100.00
13800;BME280;6971;50.028;9.258;2023-01-30T20:32:19;100009.31;;;2.79;100.00
13800;BME280;6971;50.028;9.258;2023-01-30T20:37:20;100013.69;;;2.75;100.00
13800;BME280;6971;50.028;9.258;2023-01-30T20:42:21;100025.88;;;2.73;100.00
13800;BME280;6971;50.028;9.258;2023-01-30T20:47:25;100037.94;;;2.77;100.00
13800;BME280;6971;50.028;9.258;2023-01-30T20:52:26;100037.09;;;2.77;100.00
13800;BME280;6971;50.028;9.258;2023-01-30T20:57:29;100039.69;;;2.78;100.00
13800;BME280;6971;50.028;9.258;2023-01-30T21:02:30;100046.59;;;2.82;100.00
13800;BME280;6971;50.028;9.258;2023-01-30T21:07:31;100050.94;;;2.79;100.00
13800;BME280;6971;50.028;9.258;2023-01-30T21:12:32;100061.47;;;2.69;100.00
13800;BME280;6971;50.028;9.258;2023-01-30T21:17:33;100055.34;;;2.75;100.00
13800;BME280;6971;50.028;9.258;2023-01-30T21:22:34;100057.06;;;2.74;100.00
13800;BME280;6971;50.028;9.258;2023-01-30T21:27:34;100064.94;;;2.71;100.00
13800;BME280;6971;50.028;9.258;2023-01-30T21:32:35;100077.84;;;2.81;100.00
13800;BME280;6971;50.028;9.258;2023-01-30T21:37:36;100081.41;;;2.72;100.00
13800;BME280;6971;50.028;9.258;2023-01-30T21:42:55;100078.88;;;2.66;100.00
13800;BME280;6971;50.028;9.258;2023-01-30T21:48:14;100085.91;;;2.56;100.00
13800;BME280;6971;50.028;9.258;2023-01-30T21:53:14;100092.94;;;2.47;100.00
13800;BME280;6971;50.028;9.258;2023-01-30T21:58:15;100089.47;;;2.48;100.00
13800;BME280;6971;50.028;9.258;2023-01-30T22:03:16;100089.50;;;2.44;100.00
13800;BME280;6971;50.028;9.258;2023-01-30T22:08:16;100105.16;;;2.39;100.00
13800;BME280;6971;50.028;9.258;2023-01-30T22:13:17;100100.75;;;2.46;100.00
13800;BME280;6971;50.028;9.258;2023-01-30T22:18:21;100119.03;;;2.41;100.00
13800;BME280;6971;50.028;9.258;2023-01-30T22:23:22;100115.44;;;2.52;100.00
13800;BME280;6971;50.028;9.258;2023-01-30T22:28:22;100120.75;;;2.42;100.00
13800;BME280;6971;50.028;9.258;2023-01-30T22:33:23;100126.03;;;2.31;100.00
13800;BME280;6971;50.028;9.258;2023-01-30T22:38:24;100133.84;;;2.33;100.00
13800;BME280;6971;50.028;9.258;2023-01-30T22:43:27;100121.66;;;2.37;100.00
13800;BME280;6971;50.028;9.258;2023-01-30T22:48:28;100141.53;;;2.44;100.00
13800;BME280;6971;50.028;9.258;2023-01-30T22:53:31;100150.13;;;2.55;100.00
13800;BME280;6971;50.028;9.258;2023-01-30T22:58:32;100149.25;;;2.56;100.00
13800;BME280;6971;50.028;9.258;2023-01-30T23:03:33;100157.00;;;2.61;100.00
13800;BME280;6971;50.028;9.258;2023-01-30T23:08:37;100150.09;;;2.57;100.00
13800;BME280;6971;50.028;9.258;2023-01-30T23:13:40;100157.97;;;2.52;100.00
13800;BME280;6971;50.028;9.258;2023-01-30T23:18:42;100153.56;;;2.60;100.00
13800;BME280;6971;50.028;9.258;2023-01-30T23:24:00;100151.84;;;2.55;100.00
13800;BME280;6971;50.028;9.258;2023-01-30T23:29:02;100150.19;;;2.46;100.00
13800;BME280;6971;50.028;9.258;2023-01-30T23:34:05;100147.56;;;2.47;100.00
13800;BME280;6971;50.028;9.258;2023-01-30T23:39:06;100159.69;;;2.50;100.00
13800;BME280;6971;50.028;9.258;2023-01-30T23:44:07;100157.94;;;2.54;100.00
13800;BME280;6971;50.028;9.258;2023-01-30T23:49:13;100154.53;;;2.48;100.00
13800;BME280;6971;50.028;9.258;2023-01-30T23:54:14;100158.06;;;2.40;100.00
13800;BME280;6971;50.028;9.258;2023-01-30T23:59:24;100160.75;;;2.30;100.00
